createdAt,value
2023-04-18T00:00:15.875Z,6.25
2023-04-18T00:02:44.335Z,6.90
2023-04-18T00:05:18.241Z,6.22
2023-04-18T00:07:45.371Z,6.70
2023-04-18T00:10:12.472Z,7.00
2023-04-18T00:12:39.592Z,7.03
2023-04-18T00:15:09.511Z,7.57
2023-04-18T00:17:40.221Z,7.22
2023-04-18T00:20:11.316Z,7.20
2023-04-18T00:22:42.970Z,7.25
2023-04-18T00:25:11.225Z,7.18
2023-04-18T00:27:41.932Z,6.65
2023-04-18T00:30:09.892Z,7.53
2023-04-18T00:32:36.933Z,7.30
2023-04-18T00:35:04.639Z,6.78
2023-04-18T00:37:31.558Z,6.20
2023-04-18T00:39:58.592Z,7.97
2023-04-18T00:42:27.781Z,6.97
2023-04-18T00:44:54.945Z,6.85
2023-04-18T00:47:21.914Z,6.85
2023-04-18T00:49:49.333Z,7.65
2023-04-18T00:52:17.266Z,6.85
2023-04-18T00:54:45.715Z,6.82
2023-04-18T00:57:13.437Z,7.10
2023-04-18T00:59:40.766Z,7.50
2023-04-18T01:02:07.728Z,7.20
2023-04-18T01:04:34.888Z,6.97
2023-04-18T01:07:02.361Z,7.25
2023-04-18T01:09:29.659Z,7.35
2023-04-18T01:11:57.049Z,7.97
2023-04-18T01:14:24.236Z,7.38
2023-04-18T01:16:51.188Z,8.13
2023-04-18T01:19:18.512Z,7.43
2023-04-18T01:21:45.651Z,7.40
2023-04-18T01:24:20.267Z,7.68
2023-04-18T01:26:49.711Z,7.35
2023-04-18T01:29:16.965Z,7.45
2023-04-18T01:31:44.010Z,7.53
2023-04-18T01:34:11.786Z,7.93
2023-04-18T01:36:39.458Z,8.02
2023-04-18T01:39:07.128Z,8.45
2023-04-18T01:41:34.044Z,8.65
2023-04-18T01:44:01.640Z,8.00
2023-04-18T01:46:30.441Z,7.22
2023-04-18T01:48:58.751Z,8.18
2023-04-18T01:51:26.441Z,8.05
2023-04-18T01:53:53.591Z,7.53
2023-04-18T01:56:20.963Z,6.97
2023-04-18T01:58:48.019Z,8.35
2023-04-18T02:01:14.965Z,8.23
2023-04-18T02:03:42.040Z,8.13
2023-04-18T02:06:10.125Z,8.52
2023-04-18T02:08:37.092Z,7.93
2023-04-18T02:11:04.043Z,8.05
2023-04-18T02:13:31.184Z,8.20
2023-04-18T02:15:58.145Z,8.60
2023-04-18T02:18:26.708Z,7.70
2023-04-18T02:20:53.700Z,7.95
2023-04-18T02:23:20.785Z,8.68
2023-04-18T02:25:47.766Z,8.77
2023-04-18T02:28:14.726Z,9.60
2023-04-18T02:30:41.682Z,9.45
2023-04-18T02:33:11.499Z,9.13
2023-04-18T02:35:38.708Z,8.98
2023-04-18T02:38:05.935Z,9.23
2023-04-18T02:40:32.924Z,9.73
2023-04-18T02:42:59.916Z,9.00
2023-04-18T02:45:26.955Z,8.52
2023-04-18T02:47:57.021Z,9.13
2023-04-18T02:50:26.517Z,8.73
2023-04-18T02:52:53.742Z,7.90
2023-04-18T02:55:21.937Z,9.65
2023-04-18T02:57:49.109Z,9.15
2023-04-18T03:00:16.262Z,9.75
2023-04-18T03:02:43.463Z,10.10
2023-04-18T03:05:10.905Z,9.95
2023-04-18T03:07:38.020Z,9.10
2023-04-18T03:10:05.961Z,9.68
2023-04-18T03:12:32.994Z,8.98
2023-04-18T03:15:00.030Z,9.90
2023-04-18T03:17:28.132Z,10.18
2023-04-18T03:19:55.499Z,10.77
2023-04-18T03:22:22.411Z,10.55
2023-04-18T03:24:49.432Z,10.90
2023-04-18T03:27:16.387Z,10.45
2023-04-18T03:29:43.390Z,11.65
2023-04-18T03:32:10.740Z,12.50
2023-04-18T03:34:37.566Z,13.15
2023-04-18T03:37:04.434Z,12.38
2023-04-18T03:39:34.749Z,12.65
2023-04-18T03:42:02.289Z,12.32
2023-04-18T03:44:31.436Z,14.18
2023-04-18T03:46:58.782Z,13.30
2023-04-18T03:49:25.632Z,13.18
2023-04-18T03:51:52.536Z,14.75
2023-04-18T03:54:19.458Z,12.60
2023-04-18T03:56:46.836Z,13.35
2023-04-18T03:59:13.767Z,14.27
2023-04-18T04:01:40.894Z,12.93
2023-04-18T04:04:09.909Z,13.80
2023-04-18T04:06:37.248Z,14.15
2023-04-18T04:09:04.349Z,14.15
2023-04-18T04:11:31.339Z,14.10
2023-04-18T04:13:58.392Z,14.23
2023-04-18T04:16:25.449Z,14.23
2023-04-18T04:18:52.440Z,13.90
2023-04-18T04:21:21.136Z,14.60
2023-04-18T04:23:48.275Z,14.77
2023-04-18T04:26:15.273Z,15.10
2023-04-18T04:28:43.068Z,14.18
2023-04-18T04:31:10.496Z,14.10
2023-04-18T04:33:39.278Z,14.82
2023-04-18T04:36:09.301Z,14.02
2023-04-18T04:38:40.655Z,13.40
2023-04-18T04:41:08.419Z,14.02
2023-04-18T04:43:35.484Z,13.45
2023-04-18T04:46:07.787Z,14.65
2023-04-18T04:48:34.794Z,14.05
2023-04-18T04:51:01.836Z,14.55
2023-04-18T04:53:32.455Z,13.18
2023-04-18T04:55:59.603Z,14.18
2023-04-18T04:58:27.062Z,13.80
2023-04-18T05:00:54.890Z,13.55
2023-04-18T05:03:22.803Z,13.20
2023-04-18T05:05:49.879Z,12.60
2023-04-18T05:08:16.940Z,13.38
2023-04-18T05:10:44.559Z,14.10
2023-04-18T05:13:12.036Z,13.98
2023-04-18T05:15:40.237Z,13.73
2023-04-18T05:18:07.842Z,14.07
2023-04-18T05:20:34.809Z,13.38
2023-04-18T05:23:01.995Z,13.38
2023-04-18T05:25:30.075Z,13.63
2023-04-18T05:27:57.453Z,13.80
2023-04-18T05:30:27.396Z,13.18
2023-04-18T05:32:54.360Z,13.23
2023-04-18T05:35:21.261Z,13.55
2023-04-18T05:37:48.293Z,12.75
2023-04-18T05:40:15.432Z,15.18
2023-04-18T05:42:42.302Z,14.35
2023-04-18T05:45:10.048Z,14.55
2023-04-18T05:47:36.946Z,14.00
2023-04-18T05:50:04.272Z,13.27
2023-04-18T05:52:32.261Z,14.13
2023-04-18T05:54:59.408Z,13.15
2023-04-18T05:57:26.319Z,14.18
2023-04-18T05:59:56.058Z,13.85
2023-04-18T06:02:23.278Z,13.32
2023-04-18T06:04:51.715Z,14.48
2023-04-18T06:07:18.883Z,14.85
2023-04-18T06:09:46.187Z,14.13
2023-04-18T06:12:13.032Z,13.82
2023-04-18T06:14:40.131Z,15.50
2023-04-18T06:17:07.415Z,14.63
2023-04-18T06:19:34.375Z,14.63
2023-04-18T06:22:01.850Z,14.70
2023-04-18T06:24:30.743Z,14.07
2023-04-18T06:26:58.394Z,14.38
2023-04-18T06:29:28.370Z,14.95
2023-04-18T06:31:55.342Z,13.75
2023-04-18T06:34:22.878Z,14.77
2023-04-18T06:36:50.218Z,13.98
2023-04-18T06:39:17.201Z,14.85
2023-04-18T06:41:44.260Z,14.48
2023-04-18T06:44:11.133Z,13.85
2023-04-18T06:46:38.126Z,13.82
2023-04-18T06:49:05.150Z,15.20
2023-04-18T06:51:32.459Z,13.95
2023-04-18T06:53:59.642Z,13.10
2023-04-18T06:56:26.614Z,14.07
2023-04-18T06:58:53.663Z,14.68
2023-04-18T07:01:21.051Z,13.48
2023-04-18T07:03:48.297Z,14.23
2023-04-18T07:06:15.709Z,13.25
2023-04-18T07:08:42.620Z,14.43
2023-04-18T07:11:11.603Z,13.65
2023-04-18T07:13:38.682Z,13.52
2023-04-18T07:16:06.283Z,14.90
2023-04-18T07:18:38.112Z,14.60
2023-04-18T07:21:09.039Z,14.27
2023-04-18T07:23:36.936Z,13.07
2023-04-18T07:26:05.939Z,14.32
2023-04-18T07:28:33.451Z,14.13
2023-04-18T07:31:01.521Z,13.68
2023-04-18T07:33:31.849Z,13.63
2023-04-18T07:35:58.802Z,13.50
2023-04-18T07:38:25.989Z,13.32
2023-04-18T07:41:00.155Z,12.98
2023-04-18T07:43:27.212Z,12.90
2023-04-18T07:45:54.715Z,13.27
2023-04-18T07:48:22.830Z,13.85
2023-04-18T07:50:49.926Z,12.40
2023-04-18T07:53:17.097Z,13.48
2023-04-18T07:55:44.506Z,14.38
2023-04-18T07:58:11.432Z,12.93
2023-04-18T08:00:45.197Z,13.93
2023-04-18T08:03:13.324Z,13.52
2023-04-18T08:05:42.364Z,13.52
2023-04-18T08:08:14.086Z,13.98
2023-04-18T08:10:41.103Z,13.00
2023-04-18T08:13:08.282Z,13.30
2023-04-18T08:15:35.465Z,13.82
2023-04-18T08:18:02.516Z,14.55
2023-04-18T08:20:29.639Z,15.70
2023-04-18T08:23:07.478Z,13.30
2023-04-18T08:25:36.461Z,16.02
2023-04-18T08:28:04.147Z,15.20
2023-04-18T08:30:31.708Z,15.32
2023-04-18T08:33:00.983Z,16.08
2023-04-18T08:35:30.815Z,17.05
2023-04-18T08:37:57.840Z,15.55
2023-04-18T08:40:24.986Z,15.40
2023-04-18T08:42:53.917Z,16.92
2023-04-18T08:45:21.518Z,15.93
2023-04-18T08:47:48.530Z,15.38
2023-04-18T08:50:16.646Z,14.52
2023-04-18T08:52:49.934Z,16.45
2023-04-18T08:55:17.042Z,15.93
2023-04-18T08:57:44.829Z,17.48
2023-04-18T09:00:12.759Z,16.05
2023-04-18T09:02:45.242Z,15.65
2023-04-18T09:05:19.979Z,16.10
2023-04-18T09:07:51.749Z,15.90
2023-04-18T09:10:46.765Z,16.63
2023-04-18T09:13:13.853Z,16.70
2023-04-18T09:15:40.921Z,15.52
2023-04-18T09:18:10.681Z,17.00
2023-04-18T09:20:43.704Z,16.92
2023-04-18T09:25:44.395Z,16.25
2023-04-18T09:28:31.809Z,15.98
2023-04-18T09:31:12.295Z,15.32
2023-04-18T09:33:44.694Z,15.98
2023-04-18T09:36:24.681Z,17.50
2023-04-18T09:38:56.327Z,15.38
2023-04-18T09:41:27.591Z,15.82
2023-04-18T09:44:15.839Z,15.38
2023-04-18T09:46:46.528Z,15.70
2023-04-18T09:49:14.910Z,15.82
2023-04-18T09:51:44.701Z,14.65
2023-04-18T09:54:16.759Z,16.40
2023-04-18T09:56:50.679Z,16.23
2023-04-18T10:00:17.116Z,16.40
2023-04-18T10:03:21.394Z,14.45
2023-04-18T10:05:49.217Z,15.18
2023-04-18T10:08:16.984Z,15.43
2023-04-18T10:10:44.061Z,15.38
2023-04-18T10:13:14.002Z,14.82
2023-04-18T10:15:43.605Z,15.02
2023-04-18T10:18:16.527Z,14.73
2023-04-18T10:20:47.382Z,15.65
2023-04-18T10:23:37.007Z,14.82
2023-04-18T10:26:06.165Z,15.60
2023-04-18T10:28:57.441Z,16.17
2023-04-18T10:31:27.068Z,16.85
2023-04-18T10:36:31.280Z,15.23
2023-04-18T10:39:25.560Z,16.83
2023-04-18T10:41:52.588Z,16.75
2023-04-18T10:44:24.353Z,15.40
2023-04-18T10:46:51.378Z,16.15
2023-04-18T10:49:27.341Z,16.85
2023-04-18T10:51:58.767Z,15.60
2023-04-18T10:54:42.178Z,15.93
2023-04-18T10:57:10.320Z,15.93
2023-04-18T10:59:43.776Z,15.10
2023-04-18T11:02:23.285Z,15.45
2023-04-18T11:04:58.452Z,16.10
2023-04-18T11:07:40.639Z,15.63
2023-04-18T11:10:09.892Z,14.95
2023-04-18T11:12:41.476Z,15.23
2023-04-18T11:15:23.487Z,15.05
2023-04-18T11:18:02.622Z,14.70
2023-04-18T11:20:38.545Z,16.60
2023-04-18T11:23:21.535Z,15.10
2023-04-18T11:25:54.660Z,15.32
2023-04-18T11:28:24.911Z,14.75
2023-04-18T11:30:52.003Z,14.63
2023-04-18T11:33:18.938Z,14.02
2023-04-18T11:35:46.968Z,14.40
2023-04-18T11:38:18.943Z,13.18
2023-04-18T11:40:50.227Z,13.73
2023-04-18T11:43:22.781Z,14.85
2023-04-18T11:45:58.287Z,13.43
2023-04-18T11:48:37.915Z,13.65
2023-04-18T11:51:06.839Z,13.85
2023-04-18T11:53:38.879Z,13.70
2023-04-18T11:56:06.812Z,14.25
2023-04-18T11:58:35.291Z,12.98
2023-04-18T12:01:22.048Z,14.38
2023-04-18T12:04:08.954Z,13.60
2023-04-18T12:06:50.959Z,12.85
2023-04-18T12:09:19.160Z,13.00
2023-04-18T12:12:01.648Z,12.50
2023-04-18T12:14:29.439Z,12.93
2023-04-18T12:16:56.654Z,11.57
2023-04-18T12:19:28.366Z,11.23
2023-04-18T12:22:08.030Z,10.57
2023-04-18T12:24:36.052Z,11.18
2023-04-18T12:27:03.543Z,11.23
2023-04-18T12:29:30.910Z,11.20
2023-04-18T12:31:58.182Z,9.80
2023-04-18T12:34:25.178Z,10.57
2023-04-18T12:36:52.373Z,10.45
2023-04-18T12:39:19.289Z,10.15
2023-04-18T12:41:49.617Z,10.10
2023-04-18T12:44:17.372Z,9.90
2023-04-18T12:46:44.464Z,9.57
2023-04-18T12:49:11.448Z,10.32
2023-04-18T12:51:38.416Z,10.05
2023-04-18T12:54:06.811Z,10.45
2023-04-18T12:56:33.819Z,10.38
2023-04-18T12:59:00.685Z,9.45
2023-04-18T13:01:28.063Z,10.95
2023-04-18T13:04:08.283Z,9.38
2023-04-18T13:06:38.334Z,9.10
2023-04-18T13:09:05.288Z,8.55
2023-04-18T13:11:32.331Z,9.13
2023-04-18T13:13:59.874Z,8.85
2023-04-18T13:16:26.770Z,8.68
2023-04-18T13:18:53.709Z,9.38
2023-04-18T13:21:20.588Z,8.90
2023-04-18T13:23:47.719Z,8.13
2023-04-18T13:26:14.806Z,8.90
2023-04-18T13:28:41.743Z,8.27
2023-04-18T13:31:08.666Z,8.70
2023-04-18T13:33:35.766Z,9.05
2023-04-18T13:36:02.720Z,8.95
2023-04-18T13:38:29.623Z,8.52
2023-04-18T13:41:08.911Z,8.07
2023-04-18T13:43:38.278Z,8.23
2023-04-18T13:46:05.455Z,7.40
2023-04-18T13:48:32.505Z,7.10
2023-04-18T13:50:59.490Z,6.60
2023-04-18T13:53:26.380Z,6.78
2023-04-18T13:55:53.521Z,6.15
2023-04-18T13:58:20.539Z,5.53
2023-04-18T14:00:47.408Z,5.38
2023-04-18T14:03:14.846Z,5.68
2023-04-18T14:05:42.062Z,4.53
2023-04-18T14:08:09.118Z,5.00
2023-04-18T14:10:36.046Z,4.28
2023-04-18T14:13:03.032Z,4.70
2023-04-18T14:15:30.818Z,4.30
2023-04-18T14:17:58.019Z,4.28
2023-04-18T14:20:27.010Z,4.15
2023-04-18T14:22:56.857Z,4.05
2023-04-18T14:25:23.868Z,3.58
2023-04-18T14:28:07.840Z,3.78
2023-04-18T14:30:35.412Z,2.85
2023-04-18T14:33:02.637Z,2.90
2023-04-18T14:35:30.065Z,2.75
2023-04-18T14:37:57.342Z,3.17
2023-04-18T14:40:24.616Z,2.97
2023-04-18T14:42:51.645Z,2.80
2023-04-18T14:45:18.661Z,2.65
2023-04-18T14:47:46.006Z,2.78
2023-04-18T14:50:12.957Z,3.15
2023-04-18T14:52:40.823Z,3.03
2023-04-18T14:55:09.960Z,2.70
2023-04-18T14:57:37.757Z,2.60
2023-04-18T15:00:08.727Z,3.17
2023-04-18T15:02:36.302Z,3.00
2023-04-18T15:05:03.768Z,3.47
2023-04-18T15:07:31.098Z,2.78
2023-04-18T15:09:57.966Z,3.05
2023-04-18T15:12:25.300Z,2.60
2023-04-18T15:14:53.824Z,2.90
2023-04-18T15:17:21.129Z,3.13
2023-04-18T15:19:48.755Z,2.53
2023-04-18T15:22:16.246Z,2.85
2023-04-18T15:24:43.266Z,3.10
2023-04-18T15:27:11.039Z,3.63
2023-04-18T15:29:38.920Z,2.72
2023-04-18T15:32:06.762Z,3.13
2023-04-18T15:34:33.772Z,3.40
2023-04-18T15:37:01.024Z,3.35
2023-04-18T15:39:28.444Z,2.95
2023-04-18T15:41:55.579Z,3.13
2023-04-18T15:44:23.041Z,2.42
2023-04-18T15:46:51.021Z,3.22
2023-04-18T15:49:18.156Z,3.30
2023-04-18T15:51:45.078Z,2.88
2023-04-18T15:54:12.158Z,2.95
2023-04-18T15:56:39.461Z,3.55
2023-04-18T15:59:07.309Z,3.38
2023-04-18T16:01:35.725Z,3.25
2023-04-18T16:04:03.209Z,3.50
2023-04-18T16:06:31.216Z,3.28
2023-04-18T16:08:58.496Z,3.47
2023-04-18T16:11:28.940Z,3.10
2023-04-18T16:13:56.248Z,3.38
2023-04-18T16:16:23.311Z,3.33
2023-04-18T16:18:50.236Z,3.13
2023-04-18T16:21:17.380Z,3.50
2023-04-18T16:23:44.313Z,3.38
2023-04-18T16:26:11.274Z,3.25
2023-04-18T16:28:38.344Z,3.38
2023-04-18T16:31:08.395Z,2.75
2023-04-18T16:33:35.518Z,3.45
2023-04-18T16:36:03.583Z,3.03
2023-04-18T16:38:30.697Z,3.35
2023-04-18T16:40:58.768Z,3.80
2023-04-18T16:43:28.292Z,3.85
2023-04-18T16:45:58.066Z,3.53
2023-04-18T16:48:26.197Z,3.17
2023-04-18T16:50:54.337Z,3.50
2023-04-18T16:53:23.023Z,3.85
2023-04-18T16:55:50.581Z,3.83
2023-04-18T16:58:17.593Z,3.50
2023-04-18T17:00:45.048Z,3.88
2023-04-18T17:03:12.077Z,4.65
2023-04-18T17:05:39.498Z,3.70
2023-04-18T17:08:07.580Z,4.10
2023-04-18T17:10:34.926Z,4.47
2023-04-18T17:13:07.000Z,3.60
2023-04-18T17:15:34.352Z,3.95
2023-04-18T17:18:03.749Z,3.67
2023-04-18T17:20:31.141Z,4.40
2023-04-18T17:22:58.413Z,4.38
2023-04-18T17:25:25.425Z,3.95
2023-04-18T17:27:52.392Z,4.10
2023-04-18T17:30:20.464Z,4.10
2023-04-18T17:32:49.685Z,4.03
2023-04-18T17:35:20.437Z,4.72
2023-04-18T17:37:49.706Z,4.10
2023-04-18T17:40:16.709Z,3.75
2023-04-18T17:42:44.372Z,4.22
2023-04-18T17:45:12.413Z,4.78
2023-04-18T17:47:41.157Z,4.15
2023-04-18T17:50:09.791Z,4.40
2023-04-18T17:52:37.095Z,4.68
2023-04-18T17:55:04.517Z,4.38
2023-04-18T17:57:38.206Z,4.22
2023-04-18T18:00:10.577Z,4.45
2023-04-18T18:02:38.675Z,4.85
2023-04-18T18:05:06.401Z,4.93
2023-04-18T18:07:37.315Z,4.95
2023-04-18T18:10:06.713Z,4.78
2023-04-18T18:12:36.235Z,4.15
2023-04-18T18:15:03.579Z,5.07
2023-04-18T18:17:30.503Z,4.97
2023-04-18T18:19:57.520Z,4.55
2023-04-18T18:22:26.097Z,4.90
2023-04-18T18:24:53.254Z,4.88
2023-04-18T18:27:21.439Z,5.25
2023-04-18T18:29:50.897Z,4.57
2023-04-18T18:32:17.889Z,5.25
2023-04-18T18:34:45.936Z,5.50
2023-04-18T18:37:12.928Z,5.05
2023-04-18T18:39:40.037Z,5.32
2023-04-18T18:42:07.028Z,5.40
2023-04-18T18:44:34.955Z,5.03
2023-04-18T18:47:03.054Z,5.13
2023-04-18T18:49:31.473Z,5.25
2023-04-18T18:51:59.545Z,5.60
2023-04-18T18:54:27.376Z,5.28
2023-04-18T18:56:54.304Z,5.30
2023-04-18T18:59:23.275Z,5.45
2023-04-18T19:01:52.001Z,5.35
2023-04-18T19:04:20.291Z,5.72
2023-04-18T19:06:50.196Z,5.10
2023-04-18T19:09:17.393Z,5.10
2023-04-18T19:11:44.380Z,4.45
2023-04-18T19:14:11.287Z,4.40
2023-04-18T19:16:40.838Z,4.78
2023-04-18T19:19:08.704Z,5.22
2023-04-18T19:21:35.773Z,4.97
2023-04-18T19:24:02.820Z,4.53
2023-04-18T19:26:31.095Z,4.78
2023-04-18T19:28:58.596Z,4.68
2023-04-18T19:31:28.518Z,4.95
2023-04-18T19:33:55.501Z,4.43
2023-04-18T19:36:22.595Z,5.00
2023-04-18T19:38:49.538Z,5.03
2023-04-18T19:41:16.826Z,5.22
2023-04-18T19:43:44.064Z,5.13
2023-04-18T19:46:11.597Z,4.85
2023-04-18T19:48:38.716Z,5.28
2023-04-18T19:51:06.812Z,5.40
2023-04-18T19:53:34.627Z,5.55
2023-04-18T19:56:01.641Z,4.97
2023-04-18T19:58:46.013Z,5.18
2023-04-18T20:01:15.660Z,5.35
2023-04-18T20:03:43.237Z,5.55
2023-04-18T20:06:12.623Z,5.22
2023-04-18T20:08:46.357Z,5.97
2023-04-18T20:11:16.997Z,5.63
2023-04-18T20:13:45.105Z,5.97
2023-04-18T20:16:12.448Z,5.75
2023-04-18T20:18:41.679Z,5.97
2023-04-18T20:21:10.373Z,5.57
2023-04-18T20:23:38.195Z,6.30
2023-04-18T20:26:05.542Z,6.53
2023-04-18T20:28:33.617Z,6.88
2023-04-18T20:31:01.890Z,6.68
2023-04-18T20:33:29.387Z,6.32
2023-04-18T20:35:57.796Z,6.90
2023-04-18T20:38:26.050Z,7.13
2023-04-18T20:40:54.399Z,7.65
2023-04-18T20:43:21.749Z,7.32
2023-04-18T20:45:52.006Z,7.55
2023-04-18T20:48:20.037Z,7.18
2023-04-18T20:50:51.673Z,8.07
2023-04-18T20:53:27.326Z,7.95
2023-04-18T20:55:54.720Z,7.70
2023-04-18T20:58:22.078Z,7.35
2023-04-18T21:00:49.045Z,8.02
2023-04-18T21:03:16.930Z,7.13
2023-04-18T21:05:45.179Z,7.63
2023-04-18T21:08:15.967Z,7.60
2023-04-18T21:10:42.995Z,8.68
2023-04-18T21:13:12.746Z,8.52
2023-04-18T21:15:42.501Z,8.40
2023-04-18T21:18:10.032Z,8.85
2023-04-18T21:20:37.695Z,8.38
2023-04-18T21:23:04.675Z,9.05
2023-04-18T21:25:31.858Z,9.32
2023-04-18T21:27:59.611Z,9.27
2023-04-18T21:30:26.664Z,8.80
2023-04-18T21:32:53.616Z,9.43
2023-04-18T21:35:22.007Z,9.38
2023-04-18T21:37:51.350Z,9.40
2023-04-18T21:40:19.260Z,9.38
2023-04-18T21:42:47.681Z,9.25
2023-04-18T21:45:15.649Z,9.90
2023-04-18T21:47:43.270Z,10.98
2023-04-18T21:50:11.408Z,10.98
2023-04-18T21:52:38.496Z,11.35
2023-04-18T21:55:06.506Z,11.07
2023-04-18T21:57:33.582Z,10.25
2023-04-18T22:00:00.616Z,10.52
2023-04-18T22:02:28.101Z,11.73
2023-04-18T22:04:55.083Z,10.73
2023-04-18T22:07:24.232Z,12.52
2023-04-18T22:09:51.433Z,11.70
2023-04-18T22:12:18.697Z,11.05
2023-04-18T22:14:49.251Z,11.75
2023-04-18T22:17:16.334Z,10.93
2023-04-18T22:19:44.467Z,11.13
2023-04-18T22:22:11.838Z,11.52
2023-04-18T22:24:39.108Z,11.23
2023-04-18T22:27:08.159Z,11.23
2023-04-18T22:29:35.355Z,12.90
2023-04-18T22:32:02.625Z,11.20
2023-04-18T22:34:29.868Z,12.32
2023-04-18T22:36:57.089Z,12.30
2023-04-18T22:39:25.290Z,11.65
2023-04-18T22:41:52.177Z,10.57
2023-04-18T22:44:19.365Z,10.85
2023-04-18T22:46:48.328Z,12.13
2023-04-18T22:49:15.682Z,11.18
2023-04-18T22:51:44.008Z,11.55
2023-04-18T22:54:11.191Z,10.85
2023-04-18T22:56:38.338Z,11.35
2023-04-18T22:59:05.831Z,10.57
2023-04-18T23:01:34.714Z,10.82
2023-04-18T23:04:02.395Z,10.75
2023-04-18T23:06:30.397Z,11.48
2023-04-18T23:11:42.412Z,11.73
2023-04-18T23:14:10.043Z,11.38
2023-04-18T23:16:36.989Z,12.00
2023-04-18T23:19:04.851Z,11.73
2023-04-18T23:21:32.295Z,11.50
2023-04-18T23:24:00.198Z,12.07
2023-04-18T23:26:28.401Z,12.07
2023-04-18T23:28:55.761Z,11.32
2023-04-18T23:31:23.070Z,12.15
2023-04-18T23:33:50.022Z,12.43
2023-04-18T23:36:17.106Z,11.95
2023-04-18T23:38:44.453Z,13.18
2023-04-18T23:41:11.544Z,12.55
2023-04-18T23:43:38.519Z,12.15
2023-04-18T23:46:05.827Z,12.70
2023-04-18T23:48:32.748Z,12.98
2023-04-18T23:51:00.321Z,14.02
2023-04-18T23:53:27.274Z,12.45
2023-04-18T23:55:54.475Z,12.35
2023-04-18T23:58:21.864Z,13.13
